sensor_id;sensor_type;location;lat;lon;timestamp;temperature;humidity
54558;DHT22;40452;50.080;20.040;2023-06-10T03:50:57;22.60;66.50
54558;DHT22;40452;50.080;20.040;2023-06-10T03:53:23;22.60;66.60
54558;DHT22;40452;50.080;20.040;2023-06-10T03:55:49;22.60;66.50
54558;DHT22;40452;50.080;20.040;2023-06-10T03:58:15;22.60;66.60
54558;DHT22;40452;50.080;20.040;2023-06-10T04:00:40;22.60;66.70
54558;DHT22;40452;50.080;20.040;2023-06-10T04:03:11;22.60;66.70
54558;DHT22;40452;50.080;20.040;2023-06-10T04:05:40;22.60;66.70
54558;DHT22;40452;50.080;20.040;2023-06-10T04:08:07;22.60;66.70
54558;DHT22;40452;50.080;20.040;2023-06-10T04:10:33;22.60;66.70
54558;DHT22;40452;50.080;20.040;2023-06-10T04:12:59;22.60;66.80
54558;DHT22;40452;50.080;20.040;2023-06-10T04:15:25;22.60;66.70
54558;DHT22;40452;50.080;20.040;2023-06-10T04:17:50;22.60;66.60
54558;DHT22;40452;50.080;20.040;2023-06-10T04:20:16;22.60;66.50
54558;DHT22;40452;50.080;20.040;2023-06-10T04:22:42;22.60;66.60
54558;DHT22;40452;50.080;20.040;2023-06-10T04:25:09;22.60;66.40
54558;DHT22;40452;50.080;20.040;2023-06-10T04:27:35;22.60;66.20
54558;DHT22;40452;50.080;20.040;2023-06-10T04:30:02;22.70;66.20
54558;DHT22;40452;50.080;20.040;2023-06-10T04:32:28;22.70;66.10
54558;DHT22;40452;50.080;20.040;2023-06-10T04:34:56;22.70;66.20
54558;DHT22;40452;50.080;20.040;2023-06-10T04:37:22;22.70;66.00
54558;DHT22;40452;50.080;20.040;2023-06-10T04:39:48;22.70;65.90
54558;DHT22;40452;50.080;20.040;2023-06-10T04:42:13;22.70;65.90
54558;DHT22;40452;50.080;20.040;2023-06-10T04:44:39;22.70;65.80
54558;DHT22;40452;50.080;20.040;2023-06-10T04:47:06;22.70;65.80
54558;DHT22;40452;50.080;20.040;2023-06-10T04:49:33;22.70;65.70
54558;DHT22;40452;50.080;20.040;2023-06-10T04:51:59;22.70;65.70
54558;DHT22;40452;50.080;20.040;2023-06-10T04:54:25;22.70;65.60
54558;DHT22;40452;50.080;20.040;2023-06-10T04:56:51;22.70;65.60
54558;DHT22;40452;50.080;20.040;2023-06-10T04:59:17;22.70;65.50
54558;DHT22;40452;50.080;20.040;2023-06-10T05:01:42;22.70;65.30
54558;DHT22;40452;50.080;20.040;2023-06-10T05:04:08;22.70;65.60
54558;DHT22;40452;50.080;20.040;2023-06-10T05:06:34;22.80;65.60
54558;DHT22;40452;50.080;20.040;2023-06-10T05:09:01;22.80;65.50
54558;DHT22;40452;50.080;20.040;2023-06-10T05:11:27;22.80;65.50
54558;DHT22;40452;50.080;20.040;2023-06-10T05:13:52;22.70;65.40
54558;DHT22;40452;50.080;20.040;2023-06-10T05:16:18;22.70;65.30
54558;DHT22;40452;50.080;20.040;2023-06-10T05:18:44;22.70;65.20
54558;DHT22;40452;50.080;20.040;2023-06-10T05:21:12;22.70;65.20
54558;DHT22;40452;50.080;20.040;2023-06-10T05:23:39;22.80;65.50
54558;DHT22;40452;50.080;20.040;2023-06-10T05:26:04;22.80;65.60
54558;DHT22;40452;50.080;20.040;2023-06-10T05:28:30;22.90;65.60
54558;DHT22;40452;50.080;20.040;2023-06-10T05:30:55;22.90;65.50
54558;DHT22;40452;50.080;20.040;2023-06-10T05:33:21;22.90;65.50
54558;DHT22;40452;50.080;20.040;2023-06-10T05:35:47;22.90;65.40
54558;DHT22;40452;50.080;20.040;2023-06-10T05:38:13;22.90;64.90
54558;DHT22;40452;50.080;20.040;2023-06-10T05:40:38;23.00;65.00
54558;DHT22;40452;50.080;20.040;2023-06-10T05:43:04;22.90;64.90
54558;DHT22;40452;50.080;20.040;2023-06-10T05:45:30;23.00;65.00
54558;DHT22;40452;50.080;20.040;2023-06-10T05:47:55;23.00;65.00
54558;DHT22;40452;50.080;20.040;2023-06-10T05:50:23;23.00;65.00
54558;DHT22;40452;50.080;20.040;2023-06-10T05:52:49;23.00;65.00
54558;DHT22;40452;50.080;20.040;2023-06-10T05:55:15;23.00;64.80
54558;DHT22;40452;50.080;20.040;2023-06-10T05:57:41;23.00;64.90
54558;DHT22;40452;50.080;20.040;2023-06-10T06:00:08;23.00;65.00
54558;DHT22;40452;50.080;20.040;2023-06-10T06:02:34;23.00;64.90
54558;DHT22;40452;50.080;20.040;2023-06-10T06:05:00;23.00;65.00
54558;DHT22;40452;50.080;20.040;2023-06-10T06:07:26;23.00;65.00
54558;DHT22;40452;50.080;20.040;2023-06-10T06:09:52;23.00;64.80
54558;DHT22;40452;50.080;20.040;2023-06-10T06:12:17;23.00;65.00
54558;DHT22;40452;50.080;20.040;2023-06-10T06:14:43;23.00;64.80
54558;DHT22;40452;50.080;20.040;2023-06-10T06:17:10;23.00;64.90
54558;DHT22;40452;50.080;20.040;2023-06-10T06:19:35;23.00;64.90
54558;DHT22;40452;50.080;20.040;2023-06-10T06:22:01;23.10;65.00
54558;DHT22;40452;50.080;20.040;2023-06-10T06:24:27;23.10;64.90
54558;DHT22;40452;50.080;20.040;2023-06-10T06:26:52;23.00;64.80
54558;DHT22;40452;50.080;20.040;2023-06-10T06:29:18;23.10;64.50
54558;DHT22;40452;50.080;20.040;2023-06-10T06:31:44;23.10;64.60
54558;DHT22;40452;50.080;20.040;2023-06-10T06:34:09;23.10;64.70
54558;DHT22;40452;50.080;20.040;2023-06-10T06:36:35;23.10;64.40
54558;DHT22;40452;50.080;20.040;2023-06-10T06:39:01;23.10;64.60
54558;DHT22;40452;50.080;20.040;2023-06-10T06:41:27;23.10;64.50
54558;DHT22;40452;50.080;20.040;2023-06-10T06:43:54;23.00;63.80
54558;DHT22;40452;50.080;20.040;2023-06-10T06:46:19;22.90;64.90
54558;DHT22;40452;50.080;20.040;2023-06-10T06:48:46;23.00;64.60
54558;DHT22;40452;50.080;20.040;2023-06-10T06:51:12;23.00;64.20
54558;DHT22;40452;50.080;20.040;2023-06-10T06:53:38;23.00;64.00
54558;DHT22;40452;50.080;20.040;2023-06-10T06:56:10;23.00;63.90
54558;DHT22;40452;50.080;20.040;2023-06-10T06:58:35;23.00;63.90
54558;DHT22;40452;50.080;20.040;2023-06-10T07:01:01;23.00;64.50
54558;DHT22;40452;50.080;20.040;2023-06-10T07:03:27;23.00;64.10
54558;DHT22;40452;50.080;20.040;2023-06-10T07:05:52;23.10;64.40
54558;DHT22;40452;50.080;20.040;2023-06-10T07:08:18;23.00;64.40
54558;DHT22;40452;50.080;20.040;2023-06-10T07:10:43;23.00;64.30
54558;DHT22;40452;50.080;20.040;2023-06-10T07:13:09;23.00;64.20
54558;DHT22;40452;50.080;20.040;2023-06-10T07:15:35;22.90;64.30
54558;DHT22;40452;50.080;20.040;2023-06-10T07:18:01;23.00;64.30
54558;DHT22;40452;50.080;20.040;2023-06-10T07:20:27;23.00;64.50
54558;DHT22;40452;50.080;20.040;2023-06-10T07:22:52;23.00;64.50
54558;DHT22;40452;50.080;20.040;2023-06-10T07:25:18;23.10;64.50
54558;DHT22;40452;50.080;20.040;2023-06-10T07:27:44;23.10;64.40
54558;DHT22;40452;50.080;20.040;2023-06-10T07:30:10;23.10;64.40
54558;DHT22;40452;50.080;20.040;2023-06-10T07:32:36;23.10;64.30
54558;DHT22;40452;50.080;20.040;2023-06-10T07:35:02;23.10;64.20
54558;DHT22;40452;50.080;20.040;2023-06-10T07:37:27;23.10;64.20
54558;DHT22;40452;50.080;20.040;2023-06-10T07:39:53;23.10;64.20
54558;DHT22;40452;50.080;20.040;2023-06-10T07:42:19;23.10;64.20
54558;DHT22;40452;50.080;20.040;2023-06-10T07:44:45;23.20;64.10
54558;DHT22;40452;50.080;20.040;2023-06-10T07:47:10;23.10;64.00
54558;DHT22;40452;50.080;20.040;2023-06-10T07:49:36;23.10;64.00
54558;DHT22;40452;50.080;20.040;2023-06-10T07:52:02;23.10;63.90
54558;DHT22;40452;50.080;20.040;2023-06-10T07:54:27;23.20;64.00
54558;DHT22;40452;50.080;20.040;2023-06-10T07:56:53;23.10;63.90
54558;DHT22;40452;50.080;20.040;2023-06-10T07:59:19;23.20;63.90
54558;DHT22;40452;50.080;20.040;2023-06-10T08:01:44;23.20;63.80
54558;DHT22;40452;50.080;20.040;2023-06-10T08:04:11;23.20;63.80
54558;DHT22;40452;50.080;20.040;2023-06-10T08:06:37;23.20;63.70
54558;DHT22;40452;50.080;20.040;2023-06-10T08:09:03;23.20;63.60
54558;DHT22;40452;50.080;20.040;2023-06-10T08:11:29;23.20;63.50
54558;DHT22;40452;50.080;20.040;2023-06-10T08:13:55;23.20;63.50
54558;DHT22;40452;50.080;20.040;2023-06-10T08:16:21;23.20;63.30
54558;DHT22;40452;50.080;20.040;2023-06-10T08:18:46;23.20;63.40
54558;DHT22;40452;50.080;20.040;2023-06-10T08:21:12;23.20;62.80
54558;DHT22;40452;50.080;20.040;2023-06-10T08:23:38;23.20;63.10
54558;DHT22;40452;50.080;20.040;2023-06-10T08:26:04;23.20;63.30
54558;DHT22;40452;50.080;20.040;2023-06-10T08:28:30;23.20;63.40
54558;DHT22;40452;50.080;20.040;2023-06-10T08:30:55;23.20;63.40
54558;DHT22;40452;50.080;20.040;2023-06-10T08:33:21;23.20;63.50
54558;DHT22;40452;50.080;20.040;2023-06-10T08:35:47;23.20;63.50
54558;DHT22;40452;50.080;20.040;2023-06-10T08:38:12;23.20;63.50
54558;DHT22;40452;50.080;20.040;2023-06-10T08:40:38;23.30;63.60
54558;DHT22;40452;50.080;20.040;2023-06-10T08:43:08;23.30;63.60
54558;DHT22;40452;50.080;20.040;2023-06-10T08:45:37;23.30;63.60
54558;DHT22;40452;50.080;20.040;2023-06-10T08:48:03;23.30;63.60
54558;DHT22;40452;50.080;20.040;2023-06-10T08:50:35;23.30;63.70
54558;DHT22;40452;50.080;20.040;2023-06-10T08:53:05;23.30;63.70
54558;DHT22;40452;50.080;20.040;2023-06-10T08:55:33;23.30;63.60
54558;DHT22;40452;50.080;20.040;2023-06-10T08:58:00;23.30;63.60
54558;DHT22;40452;50.080;20.040;2023-06-10T09:00:26;23.30;63.60
54558;DHT22;40452;50.080;20.040;2023-06-10T09:02:53;23.30;63.50
54558;DHT22;40452;50.080;20.040;2023-06-10T09:05:19;23.30;63.60
54558;DHT22;40452;50.080;20.040;2023-06-10T09:07:46;23.40;63.60
54558;DHT22;40452;50.080;20.040;2023-06-10T09:10:13;23.40;63.60
54558;DHT22;40452;50.080;20.040;2023-06-10T09:12:38;23.40;63.50
54558;DHT22;40452;50.080;20.040;2023-06-10T09:15:05;23.40;63.50
54558;DHT22;40452;50.080;20.040;2023-06-10T09:17:32;23.40;63.40
54558;DHT22;40452;50.080;20.040;2023-06-10T09:19:58;23.50;62.50
54558;DHT22;40452;50.080;20.040;2023-06-10T09:22:24;23.40;63.10
54558;DHT22;40452;50.080;20.040;2023-06-10T09:25:08;23.40;63.10
54558;DHT22;40452;50.080;20.040;2023-06-10T09:30:11;23.50;63.30
54558;DHT22;40452;50.080;20.040;2023-06-10T09:32:49;23.40;63.50
54558;DHT22;40452;50.080;20.040;2023-06-10T09:35:14;23.40;63.20
54558;DHT22;40452;50.080;20.040;2023-06-10T09:37:40;23.40;63.30
54558;DHT22;40452;50.080;20.040;2023-06-10T09:40:07;23.40;63.40
54558;DHT22;40452;50.080;20.040;2023-06-10T09:42:35;23.30;63.60
54558;DHT22;40452;50.080;20.040;2023-06-10T09:45:04;23.40;63.30
54558;DHT22;40452;50.080;20.040;2023-06-10T09:47:30;23.40;63.10
54558;DHT22;40452;50.080;20.040;2023-06-10T09:49:56;23.30;63.00
54558;DHT22;40452;50.080;20.040;2023-06-10T09:52:27;23.30;62.80
54558;DHT22;40452;50.080;20.040;2023-06-10T09:54:53;23.30;63.00
54558;DHT22;40452;50.080;20.040;2023-06-10T09:57:21;23.30;63.10
54558;DHT22;40452;50.080;20.040;2023-06-10T09:59:47;23.30;63.30
54558;DHT22;40452;50.080;20.040;2023-06-10T10:02:16;23.30;63.30
54558;DHT22;40452;50.080;20.040;2023-06-10T10:04:45;23.30;63.00
54558;DHT22;40452;50.080;20.040;2023-06-10T10:07:11;23.30;62.80
54558;DHT22;40452;50.080;20.040;2023-06-10T10:09:38;23.20;62.70
54558;DHT22;40452;50.080;20.040;2023-06-10T10:12:13;23.20;62.90
54558;DHT22;40452;50.080;20.040;2023-06-10T10:14:45;23.20;63.10
54558;DHT22;40452;50.080;20.040;2023-06-10T10:17:11;23.30;63.10
54558;DHT22;40452;50.080;20.040;2023-06-10T10:19:55;23.30;63.20
54558;DHT22;40452;50.080;20.040;2023-06-10T10:22:26;23.30;63.20
54558;DHT22;40452;50.080;20.040;2023-06-10T10:25:01;23.30;63.30
54558;DHT22;40452;50.080;20.040;2023-06-10T10:27:33;23.30;63.20
54558;DHT22;40452;50.080;20.040;2023-06-10T10:29:59;23.30;63.30
54558;DHT22;40452;50.080;20.040;2023-06-10T10:32:34;23.30;63.30
54558;DHT22;40452;50.080;20.040;2023-06-10T10:35:09;23.30;63.40
54558;DHT22;40452;50.080;20.040;2023-06-10T10:37:44;23.30;63.40
54558;DHT22;40452;50.080;20.040;2023-06-10T10:40:14;23.30;63.20
54558;DHT22;40452;50.080;20.040;2023-06-10T10:42:41;23.30;63.20
54558;DHT22;40452;50.080;20.040;2023-06-10T10:45:09;23.30;63.20
54558;DHT22;40452;50.080;20.040;2023-06-10T10:47:45;23.30;63.10
54558;DHT22;40452;50.080;20.040;2023-06-10T10:50:18;23.40;63.30
54558;DHT22;40452;50.080;20.040;2023-06-10T10:52:55;23.30;63.30
54558;DHT22;40452;50.080;20.040;2023-06-10T10:55:26;23.30;63.50
54558;DHT22;40452;50.080;20.040;2023-06-10T10:58:07;23.40;63.90
54558;DHT22;40452;50.080;20.040;2023-06-10T11:00:34;23.40;63.70
54558;DHT22;40452;50.080;20.040;2023-06-10T11:08:02;23.30;63.70
54558;DHT22;40452;50.080;20.040;2023-06-10T11:10:36;23.30;63.70
54558;DHT22;40452;50.080;20.040;2023-06-10T11:13:14;23.30;63.70
54558;DHT22;40452;50.080;20.040;2023-06-10T11:15:50;23.30;63.70
54558;DHT22;40452;50.080;20.040;2023-06-10T11:18:28;23.30;63.70
54558;DHT22;40452;50.080;20.040;2023-06-10T11:20:59;23.30;63.50
54558;DHT22;40452;50.080;20.040;2023-06-10T11:29:01;23.30;63.50
54558;DHT22;40452;50.080;20.040;2023-06-10T11:31:32;23.30;63.50
54558;DHT22;40452;50.080;20.040;2023-06-10T11:34:00;23.30;63.50
54558;DHT22;40452;50.080;20.040;2023-06-10T11:36:27;23.30;63.60
54558;DHT22;40452;50.080;20.040;2023-06-10T11:39:03;23.30;63.60
54558;DHT22;40452;50.080;20.040;2023-06-10T11:41:30;23.30;63.70
54558;DHT22;40452;50.080;20.040;2023-06-10T11:44:18;23.30;63.50
54558;DHT22;40452;50.080;20.040;2023-06-10T11:46:43;23.40;63.50
54558;DHT22;40452;50.080;20.040;2023-06-10T11:49:11;23.40;63.50
54558;DHT22;40452;50.080;20.040;2023-06-10T11:51:40;23.70;63.60
54558;DHT22;40452;50.080;20.040;2023-06-10T11:54:08;23.40;63.40
54558;DHT22;40452;50.080;20.040;2023-06-10T11:56:35;23.40;63.50
54558;DHT22;40452;50.080;20.040;2023-06-10T11:59:05;23.40;63.50
54558;DHT22;40452;50.080;20.040;2023-06-10T12:01:33;23.50;63.50
54558;DHT22;40452;50.080;20.040;2023-06-10T12:06:37;23.50;63.50
54558;DHT22;40452;50.080;20.040;2023-06-10T12:09:02;23.50;63.40
54558;DHT22;40452;50.080;20.040;2023-06-10T12:11:28;23.50;63.30
54558;DHT22;40452;50.080;20.040;2023-06-10T12:13:54;23.50;63.40
54558;DHT22;40452;50.080;20.040;2023-06-10T12:16:19;23.50;63.40
54558;DHT22;40452;50.080;20.040;2023-06-10T12:18:46;23.50;63.40
54558;DHT22;40452;50.080;20.040;2023-06-10T12:21:18;23.60;63.30
54558;DHT22;40452;50.080;20.040;2023-06-10T12:26:45;23.60;63.30
54558;DHT22;40452;50.080;20.040;2023-06-10T12:29:24;23.60;63.20
54558;DHT22;40452;50.080;20.040;2023-06-10T12:31:55;23.60;63.10
54558;DHT22;40452;50.080;20.040;2023-06-10T12:34:37;23.60;62.40
54558;DHT22;40452;50.080;20.040;2023-06-10T12:37:10;23.60;62.90
54558;DHT22;40452;50.080;20.040;2023-06-10T12:39:39;23.70;63.00
54558;DHT22;40452;50.080;20.040;2023-06-10T12:42:05;23.70;62.90
54558;DHT22;40452;50.080;20.040;2023-06-10T12:44:38;23.70;62.80
54558;DHT22;40452;50.080;20.040;2023-06-10T12:47:11;23.70;62.80
54558;DHT22;40452;50.080;20.040;2023-06-10T12:49:39;23.80;62.60
54558;DHT22;40452;50.080;20.040;2023-06-10T12:52:06;23.80;62.30
54558;DHT22;40452;50.080;20.040;2023-06-10T12:54:32;23.90;62.10
54558;DHT22;40452;50.080;20.040;2023-06-10T12:56:58;26.30;55.30
54558;DHT22;40452;50.080;20.040;2023-06-10T12:59:24;28.20;50.20
54558;DHT22;40452;50.080;20.040;2023-06-10T13:01:51;28.90;48.40
54558;DHT22;40452;50.080;20.040;2023-06-10T13:04:17;28.50;49.10
54558;DHT22;40452;50.080;20.040;2023-06-10T13:06:44;27.80;50.90
54558;DHT22;40452;50.080;20.040;2023-06-10T13:09:09;27.00;52.90
54558;DHT22;40452;50.080;20.040;2023-06-10T13:11:36;26.40;54.40
54558;DHT22;40452;50.080;20.040;2023-06-10T13:14:02;26.10;55.50
54558;DHT22;40452;50.080;20.040;2023-06-10T13:16:30;25.80;56.30
54558;DHT22;40452;50.080;20.040;2023-06-10T13:18:56;25.50;56.90
54558;DHT22;40452;50.080;20.040;2023-06-10T13:21:21;25.30;57.50
54558;DHT22;40452;50.080;20.040;2023-06-10T13:23:47;25.20;57.70
54558;DHT22;40452;50.080;20.040;2023-06-10T13:26:14;25.10;58.10
54558;DHT22;40452;50.080;20.040;2023-06-10T13:28:42;25.00;58.40
54558;DHT22;40452;50.080;20.040;2023-06-10T13:31:08;25.00;58.80
54558;DHT22;40452;50.080;20.040;2023-06-10T13:33:33;24.90;58.80
54558;DHT22;40452;50.080;20.040;2023-06-10T13:35:59;24.90;59.10
54558;DHT22;40452;50.080;20.040;2023-06-10T13:38:25;24.80;59.40
54558;DHT22;40452;50.080;20.040;2023-06-10T13:40:50;24.70;59.40
54558;DHT22;40452;50.080;20.040;2023-06-10T13:43:16;24.70;59.70
54558;DHT22;40452;50.080;20.040;2023-06-10T13:45:45;24.60;59.90
54558;DHT22;40452;50.080;20.040;2023-06-10T13:48:11;24.60;59.80
54558;DHT22;40452;50.080;20.040;2023-06-10T13:50:37;24.60;60.00
54558;DHT22;40452;50.080;20.040;2023-06-10T13:53:03;24.60;60.20
54558;DHT22;40452;50.080;20.040;2023-06-10T13:55:29;24.60;61.30
54558;DHT22;40452;50.080;20.040;2023-06-10T13:57:54;24.60;61.10
54558;DHT22;40452;50.080;20.040;2023-06-10T14:00:20;24.60;60.40
54558;DHT22;40452;50.080;20.040;2023-06-10T14:02:46;24.50;60.20
54558;DHT22;40452;50.080;20.040;2023-06-10T14:05:12;24.50;59.90
54558;DHT22;40452;50.080;20.040;2023-06-10T14:07:38;24.50;60.20
54558;DHT22;40452;50.080;20.040;2023-06-10T14:10:05;24.40;60.00
54558;DHT22;40452;50.080;20.040;2023-06-10T14:12:31;24.40;60.00
54558;DHT22;40452;50.080;20.040;2023-06-10T14:14:56;24.40;59.80
54558;DHT22;40452;50.080;20.040;2023-06-10T14:17:25;24.40;59.80
54558;DHT22;40452;50.080;20.040;2023-06-10T14:19:50;24.40;60.40
54558;DHT22;40452;50.080;20.040;2023-06-10T14:22:16;24.30;59.80
54558;DHT22;40452;50.080;20.040;2023-06-10T14:24:42;24.30;59.90
54558;DHT22;40452;50.080;20.040;2023-06-10T14:27:07;24.20;59.90
54558;DHT22;40452;50.080;20.040;2023-06-10T14:29:33;24.20;60.60
54558;DHT22;40452;50.080;20.040;2023-06-10T14:31:59;24.20;60.70
54558;DHT22;40452;50.080;20.040;2023-06-10T14:34:25;24.20;60.70
54558;DHT22;40452;50.080;20.040;2023-06-10T14:36:54;24.20;60.80
54558;DHT22;40452;50.080;20.040;2023-06-10T14:39:20;24.10;60.70
54558;DHT22;40452;50.080;20.040;2023-06-10T14:41:46;24.10;60.30
54558;DHT22;40452;50.080;20.040;2023-06-10T14:44:12;24.10;60.90
54558;DHT22;40452;50.080;20.040;2023-06-10T14:46:37;24.10;60.20
54558;DHT22;40452;50.080;20.040;2023-06-10T14:49:03;24.10;60.10
54558;DHT22;40452;50.080;20.040;2023-06-10T14:51:29;24.00;59.90
54558;DHT22;40452;50.080;20.040;2023-06-10T14:53:57;24.00;60.70
54558;DHT22;40452;50.080;20.040;2023-06-10T14:56:23;24.00;60.10
54558;DHT22;40452;50.080;20.040;2023-06-10T14:58:49;24.00;60.80
54558;DHT22;40452;50.080;20.040;2023-06-10T15:01:15;24.00;59.60
54558;DHT22;40452;50.080;20.040;2023-06-10T15:03:40;24.00;59.10
54558;DHT22;40452;50.080;20.040;2023-06-10T15:06:06;23.90;59.00
54558;DHT22;40452;50.080;20.040;2023-06-10T15:08:32;23.80;58.70
54558;DHT22;40452;50.080;20.040;2023-06-10T15:10:57;23.80;58.70
54558;DHT22;40452;50.080;20.040;2023-06-10T15:13:23;23.70;58.70
54558;DHT22;40452;50.080;20.040;2023-06-10T15:15:49;23.70;58.20
54558;DHT22;40452;50.080;20.040;2023-06-10T15:18:15;23.70;58.10
54558;DHT22;40452;50.080;20.040;2023-06-10T15:20:40;23.70;58.00
54558;DHT22;40452;50.080;20.040;2023-06-10T15:23:06;23.60;57.90
54558;DHT22;40452;50.080;20.040;2023-06-10T15:25:33;23.60;57.70
54558;DHT22;40452;50.080;20.040;2023-06-10T15:27:59;23.70;57.80
54558;DHT22;40452;50.080;20.040;2023-06-10T15:30:25;23.70;57.30
54558;DHT22;40452;50.080;20.040;2023-06-10T15:32:50;23.70;57.10
54558;DHT22;40452;50.080;20.040;2023-06-10T15:35:16;23.70;57.90
54558;DHT22;40452;50.080;20.040;2023-06-10T15:37:42;23.70;57.30
54558;DHT22;40452;50.080;20.040;2023-06-10T15:40:08;23.70;57.60
54558;DHT22;40452;50.080;20.040;2023-06-10T15:42:34;23.70;56.80
54558;DHT22;40452;50.080;20.040;2023-06-10T15:44:59;23.70;57.70
54558;DHT22;40452;50.080;20.040;2023-06-10T15:47:25;23.70;56.50
54558;DHT22;40452;50.080;20.040;2023-06-10T15:49:50;23.70;57.60
54558;DHT22;40452;50.080;20.040;2023-06-10T15:52:16;23.70;56.70
54558;DHT22;40452;50.080;20.040;2023-06-10T15:54:42;23.70;57.30
54558;DHT22;40452;50.080;20.040;2023-06-10T15:57:08;23.70;57.90
54558;DHT22;40452;50.080;20.040;2023-06-10T15:59:34;23.80;58.40
54558;DHT22;40452;50.080;20.040;2023-06-10T16:02:00;23.80;58.40
54558;DHT22;40452;50.080;20.040;2023-06-10T16:04:25;23.80;58.50
54558;DHT22;40452;50.080;20.040;2023-06-10T16:06:51;23.80;58.80
54558;DHT22;40452;50.080;20.040;2023-06-10T16:09:17;23.80;58.70
54558;DHT22;40452;50.080;20.040;2023-06-10T16:11:42;23.80;58.70
54558;DHT22;40452;50.080;20.040;2023-06-10T16:14:08;23.80;58.80
54558;DHT22;40452;50.080;20.040;2023-06-10T16:16:33;23.80;58.90
54558;DHT22;40452;50.080;20.040;2023-06-10T16:18:59;23.80;58.80
54558;DHT22;40452;50.080;20.040;2023-06-10T16:21:25;23.80;58.80
54558;DHT22;40452;50.080;20.040;2023-06-10T16:23:51;23.80;59.00
54558;DHT22;40452;50.080;20.040;2023-06-10T16:26:19;23.90;59.10
54558;DHT22;40452;50.080;20.040;2023-06-10T16:28:46;23.90;59.10
54558;DHT22;40452;50.080;20.040;2023-06-10T16:31:12;23.80;59.10
54558;DHT22;40452;50.080;20.040;2023-06-10T16:33:37;23.80;59.00
54558;DHT22;40452;50.080;20.040;2023-06-10T16:36:03;23.90;59.20
54558;DHT22;40452;50.080;20.040;2023-06-10T16:38:29;23.90;59.30
54558;DHT22;40452;50.080;20.040;2023-06-10T16:40:54;23.90;59.40
54558;DHT22;40452;50.080;20.040;2023-06-10T16:43:20;23.90;59.20
54558;DHT22;40452;50.080;20.040;2023-06-10T16:45:48;23.90;59.10
54558;DHT22;40452;50.080;20.040;2023-06-10T16:48:13;23.90;59.40
54558;DHT22;40452;50.080;20.040;2023-06-10T16:50:39;23.90;59.30
54558;DHT22;40452;50.080;20.040;2023-06-10T16:53:05;23.90;59.20
54558;DHT22;40452;50.080;20.040;2023-06-10T16:55:30;23.90;59.20
54558;DHT22;40452;50.080;20.040;2023-06-10T16:57:56;23.90;59.10
54558;DHT22;40452;50.080;20.040;2023-06-10T17:00:22;24.00;58.30
54558;DHT22;40452;50.080;20.040;2023-06-10T17:02:47;23.90;57.70
54558;DHT22;40452;50.080;20.040;2023-06-10T17:05:13;23.90;57.40
54558;DHT22;40452;50.080;20.040;2023-06-10T17:07:39;23.90;56.90
54558;DHT22;40452;50.080;20.040;2023-06-10T17:10:05;24.00;57.30
54558;DHT22;40452;50.080;20.040;2023-06-10T17:12:31;23.90;58.40
54558;DHT22;40452;50.080;20.040;2023-06-10T17:14:56;23.90;58.60
54558;DHT22;40452;50.080;20.040;2023-06-10T17:17:22;23.90;58.50
54558;DHT22;40452;50.080;20.040;2023-06-10T17:19:48;23.80;58.20
54558;DHT22;40452;50.080;20.040;2023-06-10T17:22:13;23.90;58.40
54558;DHT22;40452;50.080;20.040;2023-06-10T17:24:39;23.90;58.70
54558;DHT22;40452;50.080;20.040;2023-06-10T17:27:07;23.80;58.20
54558;DHT22;40452;50.080;20.040;2023-06-10T17:29:32;23.80;57.30
54558;DHT22;40452;50.080;20.040;2023-06-10T17:31:58;23.80;58.10
54558;DHT22;40452;50.080;20.040;2023-06-10T17:34:24;23.80;56.70
54558;DHT22;40452;50.080;20.040;2023-06-10T17:36:50;23.70;56.90
54558;DHT22;40452;50.080;20.040;2023-06-10T17:39:16;23.80;56.80
54558;DHT22;40452;50.080;20.040;2023-06-10T17:41:41;23.70;56.90
54558;DHT22;40452;50.080;20.040;2023-06-10T17:44:07;23.80;57.80
54558;DHT22;40452;50.080;20.040;2023-06-10T17:46:33;23.80;58.20
54558;DHT22;40452;50.080;20.040;2023-06-10T17:48:58;24.00;58.10
54558;DHT22;40452;50.080;20.040;2023-06-10T17:51:24;23.80;57.90
54558;DHT22;40452;50.080;20.040;2023-06-10T17:53:50;23.80;57.90
54558;DHT22;40452;50.080;20.040;2023-06-10T17:56:15;23.80;58.30
54558;DHT22;40452;50.080;20.040;2023-06-10T17:58:44;23.80;58.30
54558;DHT22;40452;50.080;20.040;2023-06-10T18:01:10;23.80;58.40
54558;DHT22;40452;50.080;20.040;2023-06-10T18:03:35;23.80;58.00
54558;DHT22;40452;50.080;20.040;2023-06-10T18:06:02;23.70;58.30
54558;DHT22;40452;50.080;20.040;2023-06-10T18:08:28;23.70;58.30
54558;DHT22;40452;50.080;20.040;2023-06-10T18:10:54;23.70;58.00
54558;DHT22;40452;50.080;20.040;2023-06-10T18:13:20;23.80;58.20
54558;DHT22;40452;50.080;20.040;2023-06-10T18:15:45;23.80;58.20
54558;DHT22;40452;50.080;20.040;2023-06-10T18:18:11;23.80;58.90
54558;DHT22;40452;50.080;20.040;2023-06-10T18:20:36;23.80;58.40
54558;DHT22;40452;50.080;20.040;2023-06-10T18:23:02;23.80;58.40
54558;DHT22;40452;50.080;20.040;2023-06-10T18:25:28;23.80;58.60
54558;DHT22;40452;50.080;20.040;2023-06-10T18:27:54;23.80;58.70
54558;DHT22;40452;50.080;20.040;2023-06-10T18:30:19;23.80;58.70
54558;DHT22;40452;50.080;20.040;2023-06-10T18:32:45;23.80;58.80
54558;DHT22;40452;50.080;20.040;2023-06-10T18:35:11;23.80;58.90
54558;DHT22;40452;50.080;20.040;2023-06-10T18:37:37;23.80;59.00
54558;DHT22;40452;50.080;20.040;2023-06-10T18:40:02;23.80;59.00
54558;DHT22;40452;50.080;20.040;2023-06-10T18:42:29;23.80;59.20
54558;DHT22;40452;50.080;20.040;2023-06-10T18:44:55;23.80;59.30
54558;DHT22;40452;50.080;20.040;2023-06-10T18:47:21;23.80;59.30
54558;DHT22;40452;50.080;20.040;2023-06-10T18:49:46;23.80;59.30
54558;DHT22;40452;50.080;20.040;2023-06-10T18:52:12;23.80;59.50
54558;DHT22;40452;50.080;20.040;2023-06-10T18:54:39;23.80;59.50
54558;DHT22;40452;50.080;20.040;2023-06-10T18:57:05;23.80;59.50
54558;DHT22;40452;50.080;20.040;2023-06-10T18:59:31;23.80;59.50
54558;DHT22;40452;50.080;20.040;2023-06-10T19:01:57;23.80;59.70
54558;DHT22;40452;50.080;20.040;2023-06-10T19:04:22;23.80;59.70
54558;DHT22;40452;50.080;20.040;2023-06-10T19:06:48;23.80;59.70
54558;DHT22;40452;50.080;20.040;2023-06-10T19:09:14;23.80;59.70
54558;DHT22;40452;50.080;20.040;2023-06-10T19:11:39;23.80;59.80
54558;DHT22;40452;50.080;20.040;2023-06-10T19:14:05;23.80;60.00
54558;DHT22;40452;50.080;20.040;2023-06-10T19:16:32;23.80;60.00
54558;DHT22;40452;50.080;20.040;2023-06-10T19:18:57;23.80;60.10
54558;DHT22;40452;50.080;20.040;2023-06-10T19:21:23;23.80;60.10